»·PEaware :: N9617W KDLO-L52

N9617W :: KDLO-L52

FLIGHT INFORMATION

Flight Status: Arrived
Operator: Privately registered:
United States
More flights under this callsign
Pilot: Jereme M. (20698)
Aircraft: PIPER PA-28 CHEROKEE ARCHER
(P28A)
More flights by this aircraft type
Origin: KDLO Delano Mun
United States
Destination: L52 Oceano Co
United States
More flights between these airports :: More routes between these airports
Route:
File this flight plan on PilotEdge
Remarks:
Altitude:
(Current/Filed)
4,500ft
Speed:
(Current/Filed)
110kts
Departed: 16-May-20 11:30 AM
Arrived: 16-May-20 12:31 PM
Distance/Time
Traveled:
78nm/1:01
Distance/Time
To Go:
Arrived

Flight Plot

Page will automatically refresh every two minutes.

Flight plan parsing failed; only flown route is shown


Map Options




Map Legend


Flown Route
Filed Route
Departure Airport
Arrival Airport
Navaid (VOR, NDB)
Fix

Horizontal Profiles

Position Reports

Time Latitude Longitude Heading Altitude Ground
Speed
16-May-20 11:24 35.744893 -119.238700 337 313ft 0kts
16-May-20 11:25 35.744893 -119.238700 337 313ft 0kts
16-May-20 11:26 35.744893 -119.238700 337 313ft 0kts
16-May-20 11:27 35.744925 -119.238716 341 313ft 0kts
16-May-20 11:28 35.747552 -119.239286 343 313ft 15kts
16-May-20 11:29 35.748417 -119.238365 69 313ft 2kts
16-May-20 11:30 35.736521 -119.232374 160 779ft 76kts
16-May-20 11:31 35.716721 -119.241474 206 1785ft 79kts
16-May-20 11:32 35.694738 -119.251791 201 2718ft 82kts
16-May-20 11:33 35.674894 -119.261904 204 3629ft 76kts
16-May-20 11:33 35.659127 -119.271727 205 4313ft 75kts
16-May-20 11:35 35.634904 -119.288384 204 4592ft 95kts
16-May-20 11:36 35.610723 -119.303035 205 4544ft 97kts
16-May-20 11:37 35.586901 -119.318317 207 4565ft 96kts
16-May-20 11:37 35.567195 -119.331475 208 4542ft 97kts
16-May-20 11:39 35.540298 -119.350700 210 4553ft 96kts
16-May-20 11:39 35.521164 -119.364245 205 4566ft 95kts
16-May-20 11:40 35.497407 -119.378765 205 4571ft 95kts
16-May-20 11:41 35.473446 -119.392657 204 4575ft 95kts
16-May-20 11:42 35.449716 -119.407141 207 4584ft 95kts
16-May-20 11:43 35.426353 -119.422588 204 4569ft 98kts
16-May-20 11:44 35.401908 -119.438189 209 4543ft 99kts
16-May-20 11:45 35.378570 -119.456636 208 4517ft 99kts
16-May-20 11:46 35.354078 -119.472785 205 4484ft 100kts
16-May-20 11:47 35.330000 -119.488148 211 4578ft 95kts
16-May-20 11:48 35.308476 -119.508297 212 4623ft 98kts
16-May-20 11:49 35.283945 -119.524558 207 4565ft 101kts
16-May-20 11:50 35.259066 -119.540784 199 4508ft 101kts
16-May-20 11:51 35.233935 -119.555373 207 4521ft 97kts
16-May-20 11:52 35.210389 -119.571345 205 4599ft 97kts
16-May-20 11:53 35.186739 -119.587442 207 4674ft 97kts
16-May-20 11:54 35.161261 -119.601923 201 4610ft 104kts
16-May-20 11:55 35.134286 -119.616612 203 4550ft 102kts
16-May-20 11:56 35.108245 -119.631841 205 4548ft 102kts
16-May-20 11:57 35.082202 -119.646308 201 4556ft 101kts
16-May-20 11:58 35.055259 -119.657591 201 4542ft 102kts
16-May-20 11:59 35.028435 -119.669240 189 4543ft 102kts
16-May-20 12:00 35.000123 -119.673628 185 4595ft 101kts
16-May-20 12:01 34.977060 -119.690517 245 4563ft 106kts
16-May-20 12:02 34.971941 -119.726002 265 4566ft 108kts
16-May-20 12:03 34.983793 -119.760763 293 4565ft 112kts
16-May-20 12:04 34.997790 -119.794790 292 4563ft 112kts
16-May-20 12:05 35.013475 -119.827998 292 4557ft 112kts
16-May-20 12:06 35.029002 -119.861529 292 4547ft 112kts
16-May-20 12:07 35.042904 -119.895662 288 4541ft 112kts
16-May-20 12:08 35.056655 -119.929986 288 4537ft 112kts
16-May-20 12:09 35.070160 -119.964208 287 4535ft 111kts
16-May-20 12:10 35.082139 -119.999178 286 4531ft 111kts
16-May-20 12:11 35.095419 -120.033330 288 4543ft 110kts
16-May-20 12:12 35.106191 -120.067968 268 4538ft 107kts
16-May-20 12:13 35.105121 -120.104267 262 4527ft 107kts
16-May-20 12:14 35.105338 -120.140606 263 4559ft 105kts
16-May-20 12:15 35.104187 -120.177038 262 4558ft 107kts
16-May-20 12:16 35.104269 -120.213462 258 4595ft 104kts
16-May-20 12:17 35.099872 -120.237866 251 4587ft 104kts
16-May-20 12:18 35.088855 -120.272138 247 4569ft 112kts
16-May-20 12:19 35.079002 -120.308611 251 4555ft 109kts
16-May-20 12:20 35.069243 -120.343785 249 4528ft 103kts
16-May-20 12:21 35.060147 -120.376579 252 4082ft 101kts
16-May-20 12:22 35.049931 -120.408383 246 3633ft 98kts
16-May-20 12:23 35.039290 -120.439609 249 3179ft 98kts
16-May-20 12:24 35.036373 -120.471902 272 2552ft 95kts
16-May-20 12:25 35.042234 -120.503468 297 1897ft 95kts
16-May-20 12:26 35.055161 -120.532126 299 1394ft 94kts
16-May-20 12:27 35.068060 -120.559557 302 945ft 89kts
16-May-20 12:28 35.080555 -120.583493 305 703ft 79kts
16-May-20 12:29 35.092412 -120.605457 303 419ft 70kts
16-May-20 12:30 35.102453 -120.624274 1 15ft 29kts
16-May-20 12:31 35.103360 -120.624346 25 15ft 0kts
16-May-20 12:32 35.103360 -120.624346 25 15ft 0kts
16-May-20 12:33 35.103360 -120.624346 25 15ft 0kts
16-May-20 12:34 35.103360 -120.624346 25 15ft 0kts
16-May-20 12:35 35.103360 -120.624346 25 15ft 0kts
16-May-20 12:36 35.103360 -120.624346 25 15ft 0kts
16-May-20 12:37 35.103360 -120.624346 25 15ft 0kts
16-May-20 12:38 35.103360 -120.624346 25 15ft 0kts
16-May-20 12:39 35.103360 -120.624346 25 15ft 0kts
16-May-20 12:40 35.103360 -120.624346 25 15ft 0kts
16-May-20 12:41 35.103360 -120.624346 25 15ft 0kts
16-May-20 12:42 35.103360 -120.624346 25 15ft 0kts
16-May-20 12:43 35.103360 -120.624346 25 15ft 0kts
16-May-20 12:44 35.103360 -120.624346 25 15ft 0kts
16-May-20 12:45 35.103360 -120.624346 25 15ft 0kts

Navigation Log

Ident Type
Flight plan parsing failed, navigation log unavailable